Time;durP1;ratioP1;P1;durP2;ratioP2;P2;SDS_P1;SDS_P2;PMS_P1;PMS_P2;Temp;Humidity;BMP_temperature;BMP_pressure;BME280_temperature;BME280_humidity;BME280_pressure;Samples;Min_cycle;Max_cycle;Signal;HPM_P1;HPM_P2
2022/07/01 00:00:29;;;;;;;;;;;15.00;99.90;;;;;;5095675;28;19942;-79
2022/07/01 00:02:55;;;;;;;;;;;15.10;99.90;;;;;;5107812;28;19942;-78
2022/07/01 00:05:20;;;;;;;;;;;15.10;99.90;;;;;;5092828;28;19989;-78
2022/07/01 00:07:47;;;;;;;;;;;15.00;99.90;;;;;;5093023;28;19920;-78
2022/07/01 00:10:13;;;;;;;;;;;15.00;99.90;;;;;;5095203;28;19927;-78
2022/07/01 00:12:38;;;;;;;;;;;15.00;99.90;;;;;;5111998;28;19920;-78
2022/07/01 00:15:04;;;;;;;;;;;14.90;99.90;;;;;;5060863;28;19974;-78
2022/07/01 00:17:30;;;;;;;;;;;14.90;99.90;;;;;;5075732;28;19927;-78
2022/07/01 00:19:55;;;;;;;;;;;14.90;99.90;;;;;;5074853;28;19927;-78
2022/07/01 00:22:21;;;;;;;;;;;14.90;99.90;;;;;;5075497;28;19928;-79
2022/07/01 00:24:48;;;;;;;;;;;14.90;99.90;;;;;;5076746;28;20002;-78
2022/07/01 00:27:14;;;;;;;;;;;14.90;99.90;;;;;;5083354;28;19920;-78
2022/07/01 00:29:40;;;;;;;;;;;15.00;99.90;;;;;;5092503;28;20309;-78
2022/07/01 00:32:06;;;;;;;;;;;15.00;99.90;;;;;;5108910;28;19920;-79
2022/07/01 00:34:31;;;;;;;;;;;15.00;99.90;;;;;;5093411;28;19920;-78
2022/07/01 00:36:57;;;;;;;;;;;15.00;99.90;;;;;;5092183;28;19949;-79
2022/07/01 00:39:23;;;;;;;;;;;15.00;99.90;;;;;;5075380;28;19943;-78
2022/07/01 00:41:48;;;;;;;;;;;15.00;99.90;;;;;;5075440;28;19931;-79
2022/07/01 00:44:20;;;;;;;;;;;15.00;99.90;;;;;;5058551;28;20417;-79
2022/07/01 00:46:47;;;;;;;;;;;14.90;99.90;;;;;;5097080;28;19924;-79
2022/07/01 00:49:13;;;;;;;;;;;14.90;99.90;;;;;;5112568;28;19919;-78
2022/07/01 00:51:38;;;;;;;;;;;14.90;99.90;;;;;;5091849;28;19927;-78
2022/07/01 00:54:04;;;;;;;;;;;14.90;99.90;;;;;;5090575;28;19920;-79
2022/07/01 00:56:29;;;;;;;;;;;14.80;99.90;;;;;;5093697;28;19920;-79
2022/07/01 00:58:55;;;;;;;;;;;14.80;99.90;;;;;;5094888;28;19920;-79
2022/07/01 01:01:22;;;;;;;;;;;14.80;99.90;;;;;;5112682;28;19958;-78
2022/07/01 01:03:48;;;;;;;;;;;14.80;99.90;;;;;;5095223;28;19993;-78
2022/07/01 01:06:14;;;;;;;;;;;14.80;99.90;;;;;;5110399;28;19924;-79
2022/07/01 01:08:40;;;;;;;;;;;14.80;99.90;;;;;;5095243;28;19927;-79
2022/07/01 01:11:06;;;;;;;;;;;14.80;99.90;;;;;;5112277;28;19927;-78
2022/07/01 01:13:32;;;;;;;;;;;14.80;99.90;;;;;;5111277;28;19923;-79
2022/07/01 01:15:58;;;;;;;;;;;14.80;99.90;;;;;;5094833;28;19973;-79
2022/07/01 01:18:23;;;;;;;;;;;14.70;99.90;;;;;;5108161;28;19919;-78
2022/07/01 01:20:49;;;;;;;;;;;14.70;99.90;;;;;;5111739;28;19923;-78
2022/07/01 01:23:14;;;;;;;;;;;14.70;99.90;;;;;;5094945;28;19955;-78
2022/07/01 01:25:40;;;;;;;;;;;14.70;99.90;;;;;;5089865;28;20011;-78
2022/07/01 01:28:06;;;;;;;;;;;14.70;99.90;;;;;;5092823;28;19928;-79
2022/07/01 01:30:31;;;;;;;;;;;14.70;99.90;;;;;;5100306;28;19920;-78
2022/07/01 01:32:57;;;;;;;;;;;14.70;99.90;;;;;;5091987;28;20344;-78
2022/07/01 01:35:22;;;;;;;;;;;14.60;99.90;;;;;;5097163;28;19919;-78
2022/07/01 01:37:48;;;;;;;;;;;14.70;99.90;;;;;;5084105;28;19924;-78
2022/07/01 01:40:14;;;;;;;;;;;14.70;99.90;;;;;;5083682;28;19955;-78
2022/07/01 01:42:40;;;;;;;;;;;14.60;99.90;;;;;;5111330;28;19920;-78
2022/07/01 01:45:06;;;;;;;;;;;14.70;99.90;;;;;;5115350;28;19919;-78
2022/07/01 01:47:31;;;;;;;;;;;14.70;99.90;;;;;;5116538;27;19943;-78
2022/07/01 01:49:57;;;;;;;;;;;14.70;99.90;;;;;;5091072;28;19976;-78
2022/07/01 01:52:23;;;;;;;;;;;14.80;99.90;;;;;;5114774;28;20312;-78
2022/07/01 01:54:48;;;;;;;;;;;14.80;99.90;;;;;;5098214;28;19935;-78
2022/07/01 01:57:14;;;;;;;;;;;14.80;99.90;;;;;;5111548;28;19936;-78
2022/07/01 01:59:39;;;;;;;;;;;14.80;99.90;;;;;;5065420;28;19927;-78
2022/07/01 02:02:05;;;;;;;;;;;14.80;99.90;;;;;;5116278;27;19980;-78
2022/07/01 02:04:31;;;;;;;;;;;14.90;99.90;;;;;;5098085;28;20362;-79
2022/07/01 02:06:56;;;;;;;;;;;14.90;99.90;;;;;;5098120;28;19999;-78
2022/07/01 02:09:22;;;;;;;;;;;14.90;99.90;;;;;;5114940;28;19997;-78
2022/07/01 02:11:48;;;;;;;;;;;14.90;99.90;;;;;;5112077;28;19924;-77
2022/07/01 02:14:13;;;;;;;;;;;14.90;99.90;;;;;;5076849;28;19920;-78
2022/07/01 02:16:39;;;;;;;;;;;14.90;99.90;;;;;;5075938;28;19926;-83
2022/07/01 02:19:04;;;;;;;;;;;14.80;99.90;;;;;;5114452;28;19919;-75
2022/07/01 02:21:30;;;;;;;;;;;14.80;99.90;;;;;;5099435;28;19919;-75
2022/07/01 02:23:56;;;;;;;;;;;14.70;99.90;;;;;;5106741;28;20316;-75
2022/07/01 02:26:21;;;;;;;;;;;14.70;99.90;;;;;;5108376;28;19920;-75
2022/07/01 02:28:47;;;;;;;;;;;14.60;99.90;;;;;;5094215;28;19971;-74
2022/07/01 02:31:13;;;;;;;;;;;14.60;99.90;;;;;;5112325;27;19920;-75
2022/07/01 02:33:38;;;;;;;;;;;14.60;99.90;;;;;;5102270;28;19920;-75
2022/07/01 02:36:04;;;;;;;;;;;14.60;99.90;;;;;;5114543;28;19919;-74
2022/07/01 02:38:29;;;;;;;;;;;14.60;99.90;;;;;;5131805;27;19920;-75
2022/07/01 02:40:55;;;;;;;;;;;14.60;99.90;;;;;;5097063;28;19920;-75
2022/07/01 02:43:20;;;;;;;;;;;14.60;99.90;;;;;;5083192;28;19931;-75
2022/07/01 02:45:46;;;;;;;;;;;14.50;99.90;;;;;;5077305;28;19927;-75
2022/07/01 02:48:12;;;;;;;;;;;14.50;99.90;;;;;;5093858;28;19969;-75
2022/07/01 02:50:37;;;;;;;;;;;14.50;99.90;;;;;;5095072;28;20570;-75
2022/07/01 02:53:03;;;;;;;;;;;14.50;99.90;;;;;;5078155;28;20355;-75
2022/07/01 02:55:29;;;;;;;;;;;14.40;99.90;;;;;;5076777;28;19927;-75
2022/07/01 02:57:54;;;;;;;;;;;14.50;99.90;;;;;;5110280;28;19923;-75
2022/07/01 03:00:21;;;;;;;;;;;14.40;99.90;;;;;;5100309;28;19920;-75
2022/07/01 03:02:47;;;;;;;;;;;14.50;99.90;;;;;;5105859;28;19959;-75
2022/07/01 03:05:12;;;;;;;;;;;14.50;99.90;;;;;;5112619;28;19942;-75
2022/07/01 03:07:38;;;;;;;;;;;14.40;99.90;;;;;;5099514;28;20401;-75
2022/07/01 03:10:04;;;;;;;;;;;14.50;99.90;;;;;;5093680;28;20053;-75
2022/07/01 03:12:34;;;;;;;;;;;14.50;99.90;;;;;;5110148;28;19939;-75
2022/07/01 03:15:04;;;;;;;;;;;14.50;99.90;;;;;;5076809;28;20015;-75
2022/07/01 03:17:31;;;;;;;;;;;14.50;99.90;;;;;;5083931;28;19920;-75
2022/07/01 03:19:56;;;;;;;;;;;14.50;99.90;;;;;;5109716;28;19924;-74
2022/07/01 03:22:23;;;;;;;;;;;14.60;99.90;;;;;;5093353;28;19934;-75
2022/07/01 03:24:49;;;;;;;;;;;14.60;99.90;;;;;;5125072;27;19927;-75
2022/07/01 03:27:14;;;;;;;;;;;14.60;99.90;;;;;;5111995;28;20010;-75
2022/07/01 03:29:40;;;;;;;;;;;14.70;99.90;;;;;;5108212;28;19920;-75
2022/07/01 03:32:07;;;;;;;;;;;14.70;99.90;;;;;;5111227;27;19927;-75
2022/07/01 03:34:32;;;;;;;;;;;14.70;99.90;;;;;;5094058;28;20028;-75
2022/07/01 03:36:58;;;;;;;;;;;14.70;99.90;;;;;;5110126;28;19927;-75
2022/07/01 03:39:23;;;;;;;;;;;14.70;99.90;;;;;;5096614;28;19920;-75
2022/07/01 03:41:49;;;;;;;;;;;14.70;99.90;;;;;;5076108;28;20423;-75
2022/07/01 03:44:15;;;;;;;;;;;14.70;99.90;;;;;;5076842;28;19927;-75
2022/07/01 03:46:40;;;;;;;;;;;14.70;99.90;;;;;;5092679;28;19920;-75
2022/07/01 03:49:07;;;;;;;;;;;14.70;99.90;;;;;;5091875;28;19920;-75
2022/07/01 03:51:33;;;;;;;;;;;14.70;99.90;;;;;;5112658;28;19965;-74
2022/07/01 03:56:43;;;;;;;;;;;14.70;99.90;;;;;;5114249;27;20010;-75
2022/07/01 03:59:08;;;;;;;;;;;14.80;99.90;;;;;;5106298;28;20324;-75
2022/07/01 04:01:34;;;;;;;;;;;14.80;99.90;;;;;;5075751;28;19924;-75
2022/07/01 04:03:59;;;;;;;;;;;14.80;99.90;;;;;;5093611;28;20015;-75
2022/07/01 04:06:25;;;;;;;;;;;14.80;99.90;;;;;;5095140;28;19920;-75
2022/07/01 04:08:50;;;;;;;;;;;14.90;99.90;;;;;;5095517;28;20300;-75
2022/07/01 04:11:17;;;;;;;;;;;14.90;99.90;;;;;;5111700;28;20031;-75
2022/07/01 04:13:50;;;;;;;;;;;15.00;99.90;;;;;;5095536;28;19924;-75
2022/07/01 04:16:16;;;;;;;;;;;15.00;99.90;;;;;;5126473;27;19920;-75
2022/07/01 04:18:42;;;;;;;;;;;15.10;99.90;;;;;;5109069;27;20314;-75
2022/07/01 04:23:52;;;;;;;;;;;15.00;99.90;;;;;;5115471;28;19930;-75
2022/07/01 04:26:17;;;;;;;;;;;15.00;99.90;;;;;;5094173;28;19955;-75
2022/07/01 04:28:43;;;;;;;;;;;15.00;99.90;;;;;;5112243;28;20267;-75
2022/07/01 04:31:08;;;;;;;;;;;15.10;99.90;;;;;;5092502;28;19920;-75
2022/07/01 04:33:34;;;;;;;;;;;15.00;99.90;;;;;;5091915;28;19920;-75
2022/07/01 04:35:59;;;;;;;;;;;15.10;99.90;;;;;;5101986;28;20014;-75
2022/07/01 04:38:25;;;;;;;;;;;15.10;99.90;;;;;;5095496;28;20382;-75
2022/07/01 04:43:35;;;;;;;;;;;15.10;99.90;;;;;;5077885;28;19927;-75
2022/07/01 04:46:00;;;;;;;;;;;15.10;99.90;;;;;;5093337;28;19920;-75
2022/07/01 04:48:26;;;;;;;;;;;15.20;99.90;;;;;;5075110;28;19927;-75
2022/07/01 04:50:51;;;;;;;;;;;15.20;99.90;;;;;;5104959;28;19919;-74
2022/07/01 04:53:17;;;;;;;;;;;15.20;99.90;;;;;;5095589;28;20423;-75
2022/07/01 04:55:42;;;;;;;;;;;15.20;99.90;;;;;;5128484;28;19920;-75
2022/07/01 04:58:08;;;;;;;;;;;15.10;99.90;;;;;;5094274;28;19976;-75
2022/07/01 05:00:33;;;;;;;;;;;15.10;99.90;;;;;;5111017;28;19920;-74
2022/07/01 05:02:59;;;;;;;;;;;15.10;99.90;;;;;;5115044;28;19948;-75
2022/07/01 05:05:24;;;;;;;;;;;15.10;99.90;;;;;;5128208;28;20018;-75
2022/07/01 05:07:50;;;;;;;;;;;15.10;99.90;;;;;;5097877;28;19920;-75
2022/07/01 05:10:16;;;;;;;;;;;15.10;99.90;;;;;;5081124;28;20065;-75
2022/07/01 05:12:41;;;;;;;;;;;15.20;99.90;;;;;;5089291;28;19943;-75
2022/07/01 05:15:08;;;;;;;;;;;15.20;99.90;;;;;;5111281;28;19920;-75
2022/07/01 05:23:02;;;;;;;;;;;15.20;99.90;;;;;;5095564;28;20015;-74
2022/07/01 05:25:27;;;;;;;;;;;15.20;99.90;;;;;;5097012;28;20004;-75
2022/07/01 05:27:54;;;;;;;;;;;15.30;99.90;;;;;;5099152;28;19972;-75
2022/07/01 05:30:20;;;;;;;;;;;15.30;99.90;;;;;;5094489;28;19958;-75
2022/07/01 05:32:45;;;;;;;;;;;15.30;99.90;;;;;;5097637;28;20146;-75
2022/07/01 05:35:11;;;;;;;;;;;15.20;99.90;;;;;;5093590;28;20022;-75
2022/07/01 05:37:36;;;;;;;;;;;15.20;99.90;;;;;;5099719;27;19920;-75
2022/07/01 05:40:02;;;;;;;;;;;15.20;99.90;;;;;;5091540;28;19971;-75
2022/07/01 05:42:28;;;;;;;;;;;15.30;99.90;;;;;;5095612;28;19931;-75
2022/07/01 05:44:53;;;;;;;;;;;15.40;99.90;;;;;;5095034;28;19927;-75
2022/07/01 05:47:19;;;;;;;;;;;15.40;99.90;;;;;;5104486;27;19919;-75
2022/07/01 05:49:44;;;;;;;;;;;15.40;99.90;;;;;;5104329;28;19924;-75
2022/07/01 05:52:10;;;;;;;;;;;15.50;99.90;;;;;;5095182;28;19920;-75
2022/07/01 05:54:36;;;;;;;;;;;15.50;99.90;;;;;;5102129;28;19974;-75
2022/07/01 05:57:01;;;;;;;;;;;15.50;99.90;;;;;;5080711;28;20034;-75
2022/07/01 05:59:27;;;;;;;;;;;15.50;99.90;;;;;;5096057;28;19920;-80
2022/07/01 06:01:52;;;;;;;;;;;15.60;99.90;;;;;;5081285;28;19969;-80
2022/07/01 06:04:18;;;;;;;;;;;15.60;99.90;;;;;;5111013;28;19924;-91
2022/07/01 06:06:43;;;;;;;;;;;15.70;99.90;;;;;;5099071;28;19971;-89
2022/07/01 06:09:09;;;;;;;;;;;15.70;99.90;;;;;;5113283;27;19950;-88
2022/07/01 06:11:35;;;;;;;;;;;15.60;99.90;;;;;;5117858;27;19920;-85
2022/07/01 06:14:00;;;;;;;;;;;15.70;99.90;;;;;;5111931;28;19920;-94
2022/07/01 06:16:26;;;;;;;;;;;15.70;99.90;;;;;;5098208;28;19999;-88
2022/07/01 06:18:51;;;;;;;;;;;15.70;99.90;;;;;;5076150;28;20008;-83
2022/07/01 06:21:17;;;;;;;;;;;15.70;99.90;;;;;;5095478;28;20368;-82
2022/07/01 06:23:43;;;;;;;;;;;15.70;99.90;;;;;;5094514;28;19920;-81
2022/07/01 06:26:08;;;;;;;;;;;15.60;99.90;;;;;;5087971;28;19930;-82
2022/07/01 06:28:35;;;;;;;;;;;15.60;99.90;;;;;;5113911;28;20025;-82
2022/07/01 06:31:00;;;;;;;;;;;15.50;99.90;;;;;;5097836;28;19927;-83
2022/07/01 06:33:29;;;;;;;;;;;15.60;99.90;;;;;;5077107;28;20267;-82
2022/07/01 06:35:55;;;;;;;;;;;15.60;99.90;;;;;;5112242;28;19920;-81
2022/07/01 06:38:20;;;;;;;;;;;15.50;99.90;;;;;;5096186;28;19945;-87
2022/07/01 06:41:26;;;;;;;;;;;15.50;99.90;;;;;;5096901;28;20015;-84
2022/07/01 06:43:31;;;;;;;;;;;15.50;99.90;;;;;;5106782;28;19924;-83
2022/07/01 06:45:57;;;;;;;;;;;15.60;99.90;;;;;;5106050;28;19969;-84
2022/07/01 06:48:22;;;;;;;;;;;15.60;99.90;;;;;;5091878;28;19919;-88
2022/07/01 06:50:48;;;;;;;;;;;15.60;99.90;;;;;;5096766;28;19924;-89
2022/07/01 06:53:13;;;;;;;;;;;15.60;99.90;;;;;;5078727;27;19920;-80
2022/07/01 06:55:39;;;;;;;;;;;15.70;99.90;;;;;;5113826;28;19920;-80
2022/07/01 06:58:05;;;;;;;;;;;15.70;99.90;;;;;;5078204;28;20324;-80
2022/07/01 07:00:31;;;;;;;;;;;15.80;99.90;;;;;;5077913;28;19920;-79
2022/07/01 07:02:56;;;;;;;;;;;15.80;99.90;;;;;;5076960;28;19964;-80
2022/07/01 07:05:22;;;;;;;;;;;15.70;99.90;;;;;;5096923;28;20006;-80
2022/07/01 07:07:47;;;;;;;;;;;15.80;99.90;;;;;;5097545;27;19924;-80
2022/07/01 07:10:13;;;;;;;;;;;15.80;99.90;;;;;;5117654;27;19919;-81
2022/07/01 07:12:38;;;;;;;;;;;15.90;99.90;;;;;;5121715;27;20056;-79
2022/07/01 07:15:04;;;;;;;;;;;16.00;99.90;;;;;;5087646;27;19943;-80
2022/07/01 07:17:30;;;;;;;;;;;16.10;99.90;;;;;;5094707;28;20011;-80
2022/07/01 07:19:56;;;;;;;;;;;16.10;99.90;;;;;;5092653;28;19920;-80
2022/07/01 07:22:22;;;;;;;;;;;16.10;99.90;;;;;;5093360;28;19920;-80
2022/07/01 07:24:47;;;;;;;;;;;16.10;99.90;;;;;;5099998;27;19962;-80
2022/07/01 07:27:13;;;;;;;;;;;16.10;99.90;;;;;;5097009;28;19973;-81
2022/07/01 07:29:39;;;;;;;;;;;16.20;99.90;;;;;;5095455;28;19920;-79
2022/07/01 07:32:04;;;;;;;;;;;16.30;99.90;;;;;;5076667;28;19920;-80
2022/07/01 07:34:30;;;;;;;;;;;16.40;99.90;;;;;;5112384;27;19923;-80
2022/07/01 07:36:56;;;;;;;;;;;16.50;99.90;;;;;;5078438;27;20302;-78
2022/07/01 07:39:21;;;;;;;;;;;16.60;99.90;;;;;;5078616;28;19923;-80
2022/07/01 07:41:47;;;;;;;;;;;16.60;99.90;;;;;;5105531;28;19945;-80
2022/07/01 07:44:12;;;;;;;;;;;16.70;99.90;;;;;;5079232;28;19926;-80
2022/07/01 07:46:38;;;;;;;;;;;16.80;99.90;;;;;;5083032;28;19970;-80
2022/07/01 07:49:04;;;;;;;;;;;16.90;99.90;;;;;;5080862;28;19943;-79
2022/07/01 07:51:29;;;;;;;;;;;17.00;99.90;;;;;;5077187;28;20347;-81
2022/07/01 07:53:55;;;;;;;;;;;17.20;99.90;;;;;;5092954;28;19988;-80
2022/07/01 07:56:20;;;;;;;;;;;17.40;99.90;;;;;;5063318;28;19927;-80
2022/07/01 07:58:46;;;;;;;;;;;17.30;99.90;;;;;;5109780;28;20020;-80
2022/07/01 08:01:11;;;;;;;;;;;17.40;99.90;;;;;;5092532;28;20245;-78
2022/07/01 08:03:37;;;;;;;;;;;17.50;99.90;;;;;;5093848;28;19924;-78
2022/07/01 08:06:03;;;;;;;;;;;17.70;99.90;;;;;;5094154;27;19924;-89
2022/07/01 08:08:28;;;;;;;;;;;17.80;99.90;;;;;;5103330;28;19981;-88
2022/07/01 08:10:54;;;;;;;;;;;18.00;99.90;;;;;;5104928;28;19920;-86
2022/07/01 08:13:20;;;;;;;;;;;18.10;99.90;;;;;;5092865;28;19920;-81
2022/07/01 08:15:45;;;;;;;;;;;18.10;99.90;;;;;;5086845;28;19919;-79
2022/07/01 08:18:11;;;;;;;;;;;18.10;99.90;;;;;;5106844;27;19920;-85
2022/07/01 08:20:37;;;;;;;;;;;18.00;99.90;;;;;;5088724;28;19927;-88
2022/07/01 08:23:02;;;;;;;;;;;17.90;99.90;;;;;;5111455;28;20357;-94
2022/07/01 08:25:28;;;;;;;;;;;17.80;99.90;;;;;;5103550;28;20305;-90
2022/07/01 08:27:53;;;;;;;;;;;17.80;99.90;;;;;;5084136;28;19920;-81
2022/07/01 08:30:19;;;;;;;;;;;17.70;99.90;;;;;;5075299;28;20343;-81
2022/07/01 08:32:45;;;;;;;;;;;17.80;99.90;;;;;;5089893;28;19923;-82
2022/07/01 08:35:10;;;;;;;;;;;17.90;99.90;;;;;;5107914;28;19931;-80
2022/07/01 08:37:36;;;;;;;;;;;17.90;99.90;;;;;;5101993;28;19928;-82
2022/07/01 08:40:02;;;;;;;;;;;18.00;99.90;;;;;;5099606;28;19931;-81
2022/07/01 08:42:27;;;;;;;;;;;18.30;99.90;;;;;;5109974;28;20343;-80
2022/07/01 08:44:53;;;;;;;;;;;18.50;99.90;;;;;;5092892;28;20018;-82
2022/07/01 08:47:18;;;;;;;;;;;18.70;99.90;;;;;;5092779;28;19926;-83
2022/07/01 08:49:44;;;;;;;;;;;18.80;99.90;;;;;;5107980;28;19936;-86
2022/07/01 08:52:10;;;;;;;;;;;18.80;99.90;;;;;;5077123;28;20280;-82
2022/07/01 08:54:37;;;;;;;;;;;18.80;99.90;;;;;;5097064;28;19935;-85
2022/07/01 08:57:03;;;;;;;;;;;19.00;99.90;;;;;;5113659;28;20434;-83
2022/07/01 08:59:29;;;;;;;;;;;19.00;99.90;;;;;;5079725;28;20014;-83
2022/07/01 09:01:56;;;;;;;;;;;18.90;99.90;;;;;;5114181;28;20015;-83
2022/07/01 09:04:21;;;;;;;;;;;18.70;99.90;;;;;;5113740;28;20351;-86
2022/07/01 09:06:47;;;;;;;;;;;18.50;99.90;;;;;;5096948;28;19938;-87
2022/07/01 09:09:14;;;;;;;;;;;18.30;99.90;;;;;;5113935;28;19924;-89
2022/07/01 09:11:53;;;;;;;;;;;18.10;99.90;;;;;;5114218;28;19924;-83
2022/07/01 09:14:19;;;;;;;;;;;18.10;99.90;;;;;;5096431;28;19923;-88
2022/07/01 09:16:51;;;;;;;;;;;18.20;99.90;;;;;;5113560;28;19924;-84
2022/07/01 09:19:19;;;;;;;;;;;18.20;99.90;;;;;;5113414;28;19924;-83
2022/07/01 09:21:59;;;;;;;;;;;18.50;99.90;;;;;;5117148;27;20280;-84
2022/07/01 09:24:33;;;;;;;;;;;18.60;99.90;;;;;;5077269;28;19925;-90
2022/07/01 09:27:10;;;;;;;;;;;18.70;99.90;;;;;;5101270;27;19972;-88
2022/07/01 09:29:37;;;;;;;;;;;18.80;99.90;;;;;;5098409;28;19970;-85
2022/07/01 09:32:04;;;;;;;;;;;18.90;99.90;;;;;;5099579;28;20255;-82
2022/07/01 09:34:46;;;;;;;;;;;19.00;99.90;;;;;;5095747;28;19924;-82
2022/07/01 09:37:16;;;;;;;;;;;19.00;99.90;;;;;;5106969;28;19931;-82
2022/07/01 09:39:45;;;;;;;;;;;19.00;99.90;;;;;;5094792;28;19924;-82
2022/07/01 09:42:11;;;;;;;;;;;18.90;99.90;;;;;;5095187;28;20274;-82
2022/07/01 09:44:50;;;;;;;;;;;18.90;99.90;;;;;;5095253;28;19923;-81
2022/07/01 09:47:16;;;;;;;;;;;18.90;99.90;;;;;;5111919;28;19920;-87
2022/07/01 09:49:42;;;;;;;;;;;18.90;99.90;;;;;;5110745;28;20241;-83
2022/07/01 09:52:07;;;;;;;;;;;19.00;99.90;;;;;;5094684;28;19930;-79
2022/07/01 09:54:33;;;;;;;;;;;19.10;99.90;;;;;;5111047;28;19928;-81
2022/07/01 09:56:58;;;;;;;;;;;19.20;99.90;;;;;;5089059;28;20267;-79
2022/07/01 09:59:24;;;;;;;;;;;19.40;99.90;;;;;;5106143;28;20049;-78
2022/07/01 10:01:50;;;;;;;;;;;19.40;99.90;;;;;;5108761;28;19924;-77
2022/07/01 10:04:16;;;;;;;;;;;19.40;99.90;;;;;;5109786;28;20320;-79
2022/07/01 10:06:46;;;;;;;;;;;19.50;99.90;;;;;;5095514;28;19924;-78
2022/07/01 10:09:12;;;;;;;;;;;19.60;99.90;;;;;;5111151;28;20030;-78
2022/07/01 10:12:06;;;;;;;;;;;19.70;99.90;;;;;;5112479;28;20003;-78
2022/07/01 10:14:36;;;;;;;;;;;19.80;99.90;;;;;;5095548;28;19924;-78
2022/07/01 10:17:02;;;;;;;;;;;19.80;99.90;;;;;;5112154;28;20003;-78
2022/07/01 10:19:29;;;;;;;;;;;19.70;99.90;;;;;;5111954;28;20015;-77
2022/07/01 10:21:59;;;;;;;;;;;19.60;99.90;;;;;;5111961;28;19924;-83
2022/07/01 10:24:25;;;;;;;;;;;19.50;99.90;;;;;;5112214;28;19931;-78
2022/07/01 10:26:51;;;;;;;;;;;19.30;99.90;;;;;;5119778;27;19924;-81
2022/07/01 10:29:27;;;;;;;;;;;19.30;99.90;;;;;;5094550;28;19924;-81
2022/07/01 10:31:52;;;;;;;;;;;19.20;99.90;;;;;;5095125;28;20010;-78
2022/07/01 10:34:19;;;;;;;;;;;19.20;99.90;;;;;;5111186;27;20023;-80
2022/07/01 10:36:44;;;;;;;;;;;19.20;99.90;;;;;;5128612;27;20271;-82
2022/07/01 10:39:13;;;;;;;;;;;19.30;99.90;;;;;;5094782;28;19920;-79
2022/07/01 10:41:40;;;;;;;;;;;19.20;99.90;;;;;;5094415;28;20048;-87
2022/07/01 10:44:13;;;;;;;;;;;19.20;99.90;;;;;;5101451;28;19970;-79
2022/07/01 10:46:57;;;;;;;;;;;19.10;99.90;;;;;;5105972;27;19924;-79
2022/07/01 10:49:35;;;;;;;;;;;19.00;99.90;;;;;;5109058;28;19924;-80
2022/07/01 10:52:03;;;;;;;;;;;18.80;99.90;;;;;;5091503;28;19975;-82
2022/07/01 10:57:23;;;;;;;;;;;18.90;99.90;;;;;;5107700;28;19924;-81
2022/07/01 10:59:49;;;;;;;;;;;19.00;99.90;;;;;;5102620;28;19928;-79
2022/07/01 11:02:34;;;;;;;;;;;19.30;99.90;;;;;;5093760;28;19997;-78
2022/07/01 11:04:59;;;;;;;;;;;19.50;99.90;;;;;;5111082;28;19945;-79
2022/07/01 11:07:26;;;;;;;;;;;19.50;99.90;;;;;;5108317;27;19948;-79
2022/07/01 11:09:52;;;;;;;;;;;19.40;99.90;;;;;;5111397;28;20382;-79
2022/07/01 11:12:19;;;;;;;;;;;19.30;99.90;;;;;;5110745;28;19923;-79
2022/07/01 11:14:45;;;;;;;;;;;19.30;99.90;;;;;;5111304;28;20023;-79
2022/07/01 11:17:11;;;;;;;;;;;19.70;99.90;;;;;;5109224;28;20014;-79
2022/07/01 11:19:36;;;;;;;;;;;20.00;99.90;;;;;;5110404;28;19924;-78
2022/07/01 11:22:02;;;;;;;;;;;20.10;99.90;;;;;;5110850;28;19920;-76
2022/07/01 11:24:28;;;;;;;;;;;20.30;99.90;;;;;;5093538;28;19928;-78
2022/07/01 11:27:04;;;;;;;;;;;20.50;99.90;;;;;;5108861;27;20069;-77
2022/07/01 11:29:30;;;;;;;;;;;20.60;99.90;;;;;;5107738;27;20425;-77
2022/07/01 11:31:56;;;;;;;;;;;20.70;99.90;;;;;;5090497;28;20307;-77
2022/07/01 11:34:21;;;;;;;;;;;20.90;99.90;;;;;;5090396;28;19927;-78
2022/07/01 11:39:35;;;;;;;;;;;21.20;99.90;;;;;;5109595;28;19963;-78
2022/07/01 11:42:06;;;;;;;;;;;21.10;99.90;;;;;;5093504;28;19977;-80
2022/07/01 11:44:34;;;;;;;;;;;21.20;99.90;;;;;;5127805;27;19971;-80
2022/07/01 11:47:01;;;;;;;;;;;21.40;99.90;;;;;;5110654;28;19926;-78
2022/07/01 11:49:26;;;;;;;;;;;21.40;99.90;;;;;;5100684;28;19919;-79
2022/07/01 11:51:55;;;;;;;;;;;21.30;99.90;;;;;;5104443;27;19920;-79
2022/07/01 11:54:22;;;;;;;;;;;21.00;99.90;;;;;;5108664;28;19919;-79
2022/07/01 11:56:48;;;;;;;;;;;20.70;99.90;;;;;;5110186;28;19924;-78
2022/07/01 11:59:13;;;;;;;;;;;21.00;99.90;;;;;;5108875;28;19976;-77
2022/07/01 12:01:39;;;;;;;;;;;21.10;99.90;;;;;;5092964;28;19924;-78
2022/07/01 12:04:05;;;;;;;;;;;21.20;99.90;;;;;;5091825;28;19973;-77
2022/07/01 12:06:32;;;;;;;;;;;20.90;99.90;;;;;;5072939;28;19947;-78
2022/07/01 12:08:58;;;;;;;;;;;20.80;99.90;;;;;;5097094;28;20003;-77
2022/07/01 12:11:25;;;;;;;;;;;20.80;99.90;;;;;;5110201;28;20410;-77
2022/07/01 12:13:51;;;;;;;;;;;20.80;99.90;;;;;;5098964;28;19931;-78
2022/07/01 12:16:17;;;;;;;;;;;20.80;99.90;;;;;;5089206;28;19924;-78
2022/07/01 12:18:52;;;;;;;;;;;20.80;99.90;;;;;;5109632;28;20426;-79
2022/07/01 12:21:18;;;;;;;;;;;21.40;99.90;;;;;;5091705;28;19924;-79
2022/07/01 12:24:02;;;;;;;;;;;21.40;99.90;;;;;;5114213;28;20003;-78
2022/07/01 12:26:27;;;;;;;;;;;21.40;99.90;;;;;;5112356;28;19969;-83
2022/07/01 12:28:54;;;;;;;;;;;22.00;99.90;;;;;;5111920;28;19928;-80
2022/07/01 12:31:19;;;;;;;;;;;22.60;99.90;;;;;;5119765;27;19938;-81
2022/07/01 12:33:49;;;;;;;;;;;22.60;99.90;;;;;;5107746;28;19919;-78
2022/07/01 12:36:15;;;;;;;;;;;22.50;99.90;;;;;;5121039;28;19923;-79
2022/07/01 12:38:41;;;;;;;;;;;23.00;99.90;;;;;;5104254;28;19950;-78
2022/07/01 12:41:26;;;;;;;;;;;22.70;99.90;;;;;;5108806;28;20287;-79
2022/07/01 12:43:51;;;;;;;;;;;23.10;99.90;;;;;;5106426;28;19967;-79
2022/07/01 12:46:30;;;;;;;;;;;23.50;99.90;;;;;;5097029;28;19971;-79
2022/07/01 12:48:56;;;;;;;;;;;23.60;99.90;;;;;;5097310;28;20252;-80
2022/07/01 12:51:28;;;;;;;;;;;23.10;99.90;;;;;;5126862;28;19927;-81
2022/07/01 12:53:53;;;;;;;;;;;23.30;99.90;;;;;;5124656;28;20320;-80
2022/07/01 12:56:26;;;;;;;;;;;23.80;99.90;;;;;;5109663;28;20010;-79
2022/07/01 12:58:53;;;;;;;;;;;23.60;99.90;;;;;;5105854;28;19943;-78
2022/07/01 13:01:19;;;;;;;;;;;23.20;99.90;;;;;;5092122;28;19934;-82
2022/07/01 13:03:45;;;;;;;;;;;22.80;99.90;;;;;;5107649;28;19924;-80
2022/07/01 13:06:10;;;;;;;;;;;22.70;99.90;;;;;;5103005;28;19939;-79
2022/07/01 13:08:36;;;;;;;;;;;22.80;99.90;;;;;;5091738;28;20324;-80
2022/07/01 13:11:02;;;;;;;;;;;22.70;99.90;;;;;;5090155;28;19923;-79
2022/07/01 13:13:27;;;;;;;;;;;22.40;99.90;;;;;;5090795;28;20019;-80
2022/07/01 13:15:54;;;;;;;;;;;22.70;99.90;;;;;;5091462;28;19939;-79
2022/07/01 13:18:20;;;;;;;;;;;23.10;99.90;;;;;;5104276;28;19968;-79
2022/07/01 13:20:46;;;;;;;;;;;23.10;99.90;;;;;;5091755;28;19928;-79
2022/07/01 13:23:11;;;;;;;;;;;23.10;99.90;;;;;;5109582;28;19928;-81
2022/07/01 13:25:37;;;;;;;;;;;22.80;99.90;;;;;;5091497;28;19973;-76
2022/07/01 13:28:03;;;;;;;;;;;22.80;99.90;;;;;;5092779;28;20372;-77
2022/07/01 13:30:28;;;;;;;;;;;22.30;99.90;;;;;;5124924;28;20355;-81
2022/07/01 13:32:54;;;;;;;;;;;21.90;99.90;;;;;;5074735;28;19953;-78
2022/07/01 13:35:21;;;;;;;;;;;22.10;99.90;;;;;;5108998;28;19919;-79
2022/07/01 13:37:47;;;;;;;;;;;22.10;99.90;;;;;;5108887;28;20420;-78
2022/07/01 13:40:12;;;;;;;;;;;22.60;99.90;;;;;;5095073;28;19924;-79
2022/07/01 13:42:38;;;;;;;;;;;22.80;99.90;;;;;;5096365;28;20023;-78
2022/07/01 13:45:04;;;;;;;;;;;23.10;99.90;;;;;;5113051;28;19930;-81
2022/07/01 13:47:30;;;;;;;;;;;23.40;99.90;;;;;;5092944;28;20349;-78
2022/07/01 13:49:56;;;;;;;;;;;23.70;99.90;;;;;;5113078;28;19947;-79
2022/07/01 13:52:21;;;;;;;;;;;23.70;99.90;;;;;;5113056;28;20310;-80
2022/07/01 13:54:47;;;;;;;;;;;23.30;99.90;;;;;;5113061;28;19920;-79
2022/07/01 13:57:13;;;;;;;;;;;23.60;99.90;;;;;;5107449;28;19924;-79
2022/07/01 13:59:38;;;;;;;;;;;24.10;99.90;;;;;;5112044;28;19981;-79
2022/07/01 14:02:05;;;;;;;;;;;24.10;99.90;;;;;;5112490;28;19947;-79
2022/07/01 14:04:31;;;;;;;;;;;24.10;99.90;;;;;;5127853;27;19924;-79
2022/07/01 14:06:56;;;;;;;;;;;24.50;99.90;;;;;;5110598;27;20256;-81
2022/07/01 14:09:22;;;;;;;;;;;24.30;99.90;;;;;;5111547;28;20363;-79
2022/07/01 14:11:48;;;;;;;;;;;24.50;99.90;;;;;;5094982;28;19924;-80
2022/07/01 14:14:13;;;;;;;;;;;24.20;99.50;;;;;;5111915;28;19923;-79
2022/07/01 14:16:39;;;;;;;;;;;24.80;99.90;;;;;;5113333;28;20381;-79
2022/07/01 14:19:05;;;;;;;;;;;24.50;99.90;;;;;;5110682;28;20347;-79
2022/07/01 14:21:30;;;;;;;;;;;24.50;99.90;;;;;;5111480;28;19924;-79
2022/07/01 14:23:56;;;;;;;;;;;24.30;99.90;;;;;;5092884;28;20320;-81
2022/07/01 14:26:22;;;;;;;;;;;24.50;99.90;;;;;;5102300;28;19928;-81
2022/07/01 14:28:47;;;;;;;;;;;24.50;99.90;;;;;;5126734;27;19926;-88
2022/07/01 14:31:13;;;;;;;;;;;24.40;99.90;;;;;;5119226;27;20247;-86